sensor_id;sensor_type;location;lat;lon;timestamp;temperature;humidity
26378;DHT22;14078;50.974;6.786;2023-07-29T00:00:03;19.60;99.90
26378;DHT22;14078;50.974;6.786;2023-07-29T00:02:31;19.50;99.90
26378;DHT22;14078;50.974;6.786;2023-07-29T00:04:58;19.40;99.90
26378;DHT22;14078;50.974;6.786;2023-07-29T00:07:24;19.30;99.90
26378;DHT22;14078;50.974;6.786;2023-07-29T00:09:51;19.30;99.90
26378;DHT22;14078;50.974;6.786;2023-07-29T00:12:18;19.20;99.90
26378;DHT22;14078;50.974;6.786;2023-07-29T00:14:46;19.20;99.90
26378;DHT22;14078;50.974;6.786;2023-07-29T00:17:12;19.20;99.90
26378;DHT22;14078;50.974;6.786;2023-07-29T00:19:39;19.10;99.90
26378;DHT22;14078;50.974;6.786;2023-07-29T00:22:05;19.10;99.90
26378;DHT22;14078;50.974;6.786;2023-07-29T00:24:33;19.10;99.90
26378;DHT22;14078;50.974;6.786;2023-07-29T00:27:00;19.10;99.90
26378;DHT22;14078;50.974;6.786;2023-07-29T00:29:26;19.10;99.90
26378;DHT22;14078;50.974;6.786;2023-07-29T00:31:54;19.10;99.90
26378;DHT22;14078;50.974;6.786;2023-07-29T00:34:21;19.10;99.90
26378;DHT22;14078;50.974;6.786;2023-07-29T00:36:47;19.30;99.90
26378;DHT22;14078;50.974;6.786;2023-07-29T00:39:14;19.40;99.90
26378;DHT22;14078;50.974;6.786;2023-07-29T00:41:40;19.50;99.90
26378;DHT22;14078;50.974;6.786;2023-07-29T00:44:07;19.60;99.90
26378;DHT22;14078;50.974;6.786;2023-07-29T00:46:34;19.60;99.90
26378;DHT22;14078;50.974;6.786;2023-07-29T00:49:03;19.50;99.90
26378;DHT22;14078;50.974;6.786;2023-07-29T00:51:29;19.60;99.90
26378;DHT22;14078;50.974;6.786;2023-07-29T00:53:56;19.50;99.90
26378;DHT22;14078;50.974;6.786;2023-07-29T00:56:23;19.50;99.90
26378;DHT22;14078;50.974;6.786;2023-07-29T00:58:49;19.40;99.90
26378;DHT22;14078;50.974;6.786;2023-07-29T01:01:16;19.40;99.90
26378;DHT22;14078;50.974;6.786;2023-07-29T01:03:43;19.40;99.90
26378;DHT22;14078;50.974;6.786;2023-07-29T01:06:13;19.30;99.90
26378;DHT22;14078;50.974;6.786;2023-07-29T01:08:45;19.30;99.90
26378;DHT22;14078;50.974;6.786;2023-07-29T01:11:15;19.40;99.90
26378;DHT22;14078;50.974;6.786;2023-07-29T01:13:46;19.40;99.90
26378;DHT22;14078;50.974;6.786;2023-07-29T01:16:16;19.40;99.90
26378;DHT22;14078;50.974;6.786;2023-07-29T01:18:43;19.30;99.90
26378;DHT22;14078;50.974;6.786;2023-07-29T01:21:14;19.30;99.90
26378;DHT22;14078;50.974;6.786;2023-07-29T01:23:43;19.50;99.90
26378;DHT22;14078;50.974;6.786;2023-07-29T01:26:09;19.40;99.90
26378;DHT22;14078;50.974;6.786;2023-07-29T01:28:36;19.40;99.90
26378;DHT22;14078;50.974;6.786;2023-07-29T01:31:05;19.40;99.90
26378;DHT22;14078;50.974;6.786;2023-07-29T01:33:34;19.40;99.90
26378;DHT22;14078;50.974;6.786;2023-07-29T01:36:02;19.50;99.90
26378;DHT22;14078;50.974;6.786;2023-07-29T01:38:29;19.40;99.90
26378;DHT22;14078;50.974;6.786;2023-07-29T01:41:00;19.40;99.90
26378;DHT22;14078;50.974;6.786;2023-07-29T01:43:27;19.40;99.90
26378;DHT22;14078;50.974;6.786;2023-07-29T01:45:54;19.40;99.90
26378;DHT22;14078;50.974;6.786;2023-07-29T01:48:20;19.30;99.90
26378;DHT22;14078;50.974;6.786;2023-07-29T01:50:47;19.20;99.90
26378;DHT22;14078;50.974;6.786;2023-07-29T01:53:13;19.20;99.90
26378;DHT22;14078;50.974;6.786;2023-07-29T01:55:40;19.20;99.90
26378;DHT22;14078;50.974;6.786;2023-07-29T01:58:08;19.20;99.90
26378;DHT22;14078;50.974;6.786;2023-07-29T02:00:34;19.10;99.90
26378;DHT22;14078;50.974;6.786;2023-07-29T02:03:01;19.00;99.90
26378;DHT22;14078;50.974;6.786;2023-07-29T02:05:28;18.90;99.90
26378;DHT22;14078;50.974;6.786;2023-07-29T02:07:54;18.90;99.90
26378;DHT22;14078;50.974;6.786;2023-07-29T02:10:21;18.90;99.90
26378;DHT22;14078;50.974;6.786;2023-07-29T02:12:47;18.90;99.90
26378;DHT22;14078;50.974;6.786;2023-07-29T02:15:15;19.00;99.90
26378;DHT22;14078;50.974;6.786;2023-07-29T02:17:42;19.10;99.90
26378;DHT22;14078;50.974;6.786;2023-07-29T02:20:09;19.20;99.90
26378;DHT22;14078;50.974;6.786;2023-07-29T02:22:36;19.20;99.90
26378;DHT22;14078;50.974;6.786;2023-07-29T02:25:03;19.20;99.90
26378;DHT22;14078;50.974;6.786;2023-07-29T02:27:29;19.30;99.90
26378;DHT22;14078;50.974;6.786;2023-07-29T02:29:56;19.30;99.90
26378;DHT22;14078;50.974;6.786;2023-07-29T02:32:24;19.30;99.90
26378;DHT22;14078;50.974;6.786;2023-07-29T02:34:50;19.30;99.90
26378;DHT22;14078;50.974;6.786;2023-07-29T02:37:17;19.30;99.90
26378;DHT22;14078;50.974;6.786;2023-07-29T02:39:44;19.30;99.90
26378;DHT22;14078;50.974;6.786;2023-07-29T02:42:11;19.30;99.90
26378;DHT22;14078;50.974;6.786;2023-07-29T02:44:38;19.20;99.90
26378;DHT22;14078;50.974;6.786;2023-07-29T02:47:05;19.20;99.90
26378;DHT22;14078;50.974;6.786;2023-07-29T02:49:33;19.20;99.90
26378;DHT22;14078;50.974;6.786;2023-07-29T02:51:59;19.20;99.90
26378;DHT22;14078;50.974;6.786;2023-07-29T02:54:25;19.20;99.90
26378;DHT22;14078;50.974;6.786;2023-07-29T02:56:52;19.30;99.90
26378;DHT22;14078;50.974;6.786;2023-07-29T02:59:19;19.30;99.90
26378;DHT22;14078;50.974;6.786;2023-07-29T03:01:45;19.20;99.90
26378;DHT22;14078;50.974;6.786;2023-07-29T03:04:12;19.20;99.90
26378;DHT22;14078;50.974;6.786;2023-07-29T03:06:40;19.30;99.90
26378;DHT22;14078;50.974;6.786;2023-07-29T03:09:08;19.30;99.90
26378;DHT22;14078;50.974;6.786;2023-07-29T03:11:34;19.30;99.90
26378;DHT22;14078;50.974;6.786;2023-07-29T03:14:01;19.20;99.90
26378;DHT22;14078;50.974;6.786;2023-07-29T03:16:27;19.30;99.90
26378;DHT22;14078;50.974;6.786;2023-07-29T03:18:54;19.30;99.90
26378;DHT22;14078;50.974;6.786;2023-07-29T03:21:20;19.30;99.90
26378;DHT22;14078;50.974;6.786;2023-07-29T03:23:48;19.20;99.90
26378;DHT22;14078;50.974;6.786;2023-07-29T03:26:15;19.20;99.90
26378;DHT22;14078;50.974;6.786;2023-07-29T03:28:42;19.30;99.90
26378;DHT22;14078;50.974;6.786;2023-07-29T03:31:09;19.20;99.90
26378;DHT22;14078;50.974;6.786;2023-07-29T03:33:35;19.30;99.90
26378;DHT22;14078;50.974;6.786;2023-07-29T03:36:02;19.20;99.90
26378;DHT22;14078;50.974;6.786;2023-07-29T03:38:29;19.20;99.90
26378;DHT22;14078;50.974;6.786;2023-07-29T03:40:57;19.20;99.90
26378;DHT22;14078;50.974;6.786;2023-07-29T03:43:23;19.20;99.90
26378;DHT22;14078;50.974;6.786;2023-07-29T03:45:50;19.20;99.90
26378;DHT22;14078;50.974;6.786;2023-07-29T03:48:16;19.10;99.90
26378;DHT22;14078;50.974;6.786;2023-07-29T03:50:43;19.10;99.90
26378;DHT22;14078;50.974;6.786;2023-07-29T03:53:09;19.10;99.90
26378;DHT22;14078;50.974;6.786;2023-07-29T03:55:36;19.00;99.90
26378;DHT22;14078;50.974;6.786;2023-07-29T03:58:04;19.00;99.90
26378;DHT22;14078;50.974;6.786;2023-07-29T04:00:30;18.90;99.90
26378;DHT22;14078;50.974;6.786;2023-07-29T04:02:57;18.90;99.90
26378;DHT22;14078;50.974;6.786;2023-07-29T04:05:23;19.00;99.90
26378;DHT22;14078;50.974;6.786;2023-07-29T04:07:50;19.10;99.90
26378;DHT22;14078;50.974;6.786;2023-07-29T04:10:18;19.00;99.90
26378;DHT22;14078;50.974;6.786;2023-07-29T04:12:45;19.00;99.90
26378;DHT22;14078;50.974;6.786;2023-07-29T04:15:12;19.00;99.90
26378;DHT22;14078;50.974;6.786;2023-07-29T04:17:39;19.00;99.90
26378;DHT22;14078;50.974;6.786;2023-07-29T04:20:06;19.00;99.90
26378;DHT22;14078;50.974;6.786;2023-07-29T04:22:33;19.00;99.90
26378;DHT22;14078;50.974;6.786;2023-07-29T04:24:59;18.90;99.90
26378;DHT22;14078;50.974;6.786;2023-07-29T04:27:26;18.90;99.90
26378;DHT22;14078;50.974;6.786;2023-07-29T04:29:52;18.90;99.90
26378;DHT22;14078;50.974;6.786;2023-07-29T04:32:20;18.80;99.90
26378;DHT22;14078;50.974;6.786;2023-07-29T04:34:47;18.80;99.90
26378;DHT22;14078;50.974;6.786;2023-07-29T04:37:13;18.80;99.90
26378;DHT22;14078;50.974;6.786;2023-07-29T04:39:40;18.80;99.90
26378;DHT22;14078;50.974;6.786;2023-07-29T04:42:06;18.80;99.90
26378;DHT22;14078;50.974;6.786;2023-07-29T04:44:33;18.80;99.90
26378;DHT22;14078;50.974;6.786;2023-07-29T04:46:59;18.70;99.90
26378;DHT22;14078;50.974;6.786;2023-07-29T04:49:27;18.70;99.90
26378;DHT22;14078;50.974;6.786;2023-07-29T04:51:54;18.70;99.90
26378;DHT22;14078;50.974;6.786;2023-07-29T04:54:20;18.70;99.90
26378;DHT22;14078;50.974;6.786;2023-07-29T04:56:47;18.70;99.90
26378;DHT22;14078;50.974;6.786;2023-07-29T04:59:13;18.70;99.90
26378;DHT22;14078;50.974;6.786;2023-07-29T05:01:40;18.80;99.90
26378;DHT22;14078;50.974;6.786;2023-07-29T05:04:07;18.80;99.90
26378;DHT22;14078;50.974;6.786;2023-07-29T05:06:35;18.70;99.90
26378;DHT22;14078;50.974;6.786;2023-07-29T05:09:12;18.70;99.90
26378;DHT22;14078;50.974;6.786;2023-07-29T05:11:38;18.80;99.90
26378;DHT22;14078;50.974;6.786;2023-07-29T05:14:05;18.80;99.90
26378;DHT22;14078;50.974;6.786;2023-07-29T05:16:31;18.80;99.90
26378;DHT22;14078;50.974;6.786;2023-07-29T05:18:58;19.00;99.90
26378;DHT22;14078;50.974;6.786;2023-07-29T05:21:24;18.90;99.90
26378;DHT22;14078;50.974;6.786;2023-07-29T05:23:52;18.90;99.90
26378;DHT22;14078;50.974;6.786;2023-07-29T05:26:19;19.00;99.90
26378;DHT22;14078;50.974;6.786;2023-07-29T05:28:45;19.10;99.90
26378;DHT22;14078;50.974;6.786;2023-07-29T05:31:12;19.00;99.90
26378;DHT22;14078;50.974;6.786;2023-07-29T05:33:39;19.00;99.90
26378;DHT22;14078;50.974;6.786;2023-07-29T05:36:05;19.00;99.90
26378;DHT22;14078;50.974;6.786;2023-07-29T05:38:32;19.00;99.90
26378;DHT22;14078;50.974;6.786;2023-07-29T05:41:00;18.90;99.90
26378;DHT22;14078;50.974;6.786;2023-07-29T05:43:27;18.90;99.90
26378;DHT22;14078;50.974;6.786;2023-07-29T05:45:53;18.90;99.90
26378;DHT22;14078;50.974;6.786;2023-07-29T05:48:20;18.90;99.90
26378;DHT22;14078;50.974;6.786;2023-07-29T05:50:47;18.90;99.90
26378;DHT22;14078;50.974;6.786;2023-07-29T05:53:14;18.90;99.90
26378;DHT22;14078;50.974;6.786;2023-07-29T05:55:40;19.00;99.90
26378;DHT22;14078;50.974;6.786;2023-07-29T05:58:08;19.00;99.90
26378;DHT22;14078;50.974;6.786;2023-07-29T06:00:35;18.90;99.90
26378;DHT22;14078;50.974;6.786;2023-07-29T06:03:01;18.90;99.90
26378;DHT22;14078;50.974;6.786;2023-07-29T06:05:28;18.90;99.90
26378;DHT22;14078;50.974;6.786;2023-07-29T06:07:54;18.90;99.90
26378;DHT22;14078;50.974;6.786;2023-07-29T06:10:21;18.90;99.90
26378;DHT22;14078;50.974;6.786;2023-07-29T06:12:47;18.90;99.90
26378;DHT22;14078;50.974;6.786;2023-07-29T06:15:15;18.90;99.90
26378;DHT22;14078;50.974;6.786;2023-07-29T06:17:42;18.90;99.90
26378;DHT22;14078;50.974;6.786;2023-07-29T06:20:08;19.00;99.90
26378;DHT22;14078;50.974;6.786;2023-07-29T06:22:35;19.00;99.90
26378;DHT22;14078;50.974;6.786;2023-07-29T06:25:02;18.90;99.90
26378;DHT22;14078;50.974;6.786;2023-07-29T06:27:28;18.80;99.90
26378;DHT22;14078;50.974;6.786;2023-07-29T06:29:55;18.80;99.90
26378;DHT22;14078;50.974;6.786;2023-07-29T06:32:23;18.80;99.90
26378;DHT22;14078;50.974;6.786;2023-07-29T06:34:49;18.80;99.90
26378;DHT22;14078;50.974;6.786;2023-07-29T06:37:17;18.80;99.90
26378;DHT22;14078;50.974;6.786;2023-07-29T06:39:43;18.90;99.90
26378;DHT22;14078;50.974;6.786;2023-07-29T06:42:10;18.80;99.90
26378;DHT22;14078;50.974;6.786;2023-07-29T06:44:36;18.80;99.90
26378;DHT22;14078;50.974;6.786;2023-07-29T06:47:03;18.80;99.90
26378;DHT22;14078;50.974;6.786;2023-07-29T06:49:31;18.90;99.90
26378;DHT22;14078;50.974;6.786;2023-07-29T06:51:58;18.90;99.90
26378;DHT22;14078;50.974;6.786;2023-07-29T06:54:24;19.00;99.90
26378;DHT22;14078;50.974;6.786;2023-07-29T06:56:51;19.10;99.90
26378;DHT22;14078;50.974;6.786;2023-07-29T06:59:18;19.20;99.90
26378;DHT22;14078;50.974;6.786;2023-07-29T07:01:44;19.30;99.90
26378;DHT22;14078;50.974;6.786;2023-07-29T07:04:11;19.20;99.90
26378;DHT22;14078;50.974;6.786;2023-07-29T07:06:39;19.40;99.90
26378;DHT22;14078;50.974;6.786;2023-07-29T07:09:05;19.40;99.90
26378;DHT22;14078;50.974;6.786;2023-07-29T07:11:32;19.50;99.90
26378;DHT22;14078;50.974;6.786;2023-07-29T07:13:58;19.50;99.90
26378;DHT22;14078;50.974;6.786;2023-07-29T07:16:25;19.40;99.90
26378;DHT22;14078;50.974;6.786;2023-07-29T07:18:54;19.40;99.90
26378;DHT22;14078;50.974;6.786;2023-07-29T07:21:21;19.40;99.90
26378;DHT22;14078;50.974;6.786;2023-07-29T07:23:50;19.60;99.90
26378;DHT22;14078;50.974;6.786;2023-07-29T07:26:16;19.60;99.90
26378;DHT22;14078;50.974;6.786;2023-07-29T07:28:43;19.80;99.90
26378;DHT22;14078;50.974;6.786;2023-07-29T07:31:09;19.90;99.90
26378;DHT22;14078;50.974;6.786;2023-07-29T07:33:36;20.00;99.90
26378;DHT22;14078;50.974;6.786;2023-07-29T07:36:03;20.10;99.90
26378;DHT22;14078;50.974;6.786;2023-07-29T07:38:30;20.20;99.90
26378;DHT22;14078;50.974;6.786;2023-07-29T07:40:58;20.20;99.90
26378;DHT22;14078;50.974;6.786;2023-07-29T07:43:24;20.20;99.90
26378;DHT22;14078;50.974;6.786;2023-07-29T07:45:51;20.20;99.90
26378;DHT22;14078;50.974;6.786;2023-07-29T07:48:18;20.20;99.90
26378;DHT22;14078;50.974;6.786;2023-07-29T07:50:45;20.10;99.90
26378;DHT22;14078;50.974;6.786;2023-07-29T07:53:11;20.20;99.90
26378;DHT22;14078;50.974;6.786;2023-07-29T07:55:38;20.20;99.90
26378;DHT22;14078;50.974;6.786;2023-07-29T07:58:06;20.20;99.90
26378;DHT22;14078;50.974;6.786;2023-07-29T08:00:32;20.20;99.90
26378;DHT22;14078;50.974;6.786;2023-07-29T08:02:59;20.30;99.90
26378;DHT22;14078;50.974;6.786;2023-07-29T08:05:25;20.40;99.90
26378;DHT22;14078;50.974;6.786;2023-07-29T08:07:52;20.60;99.90
26378;DHT22;14078;50.974;6.786;2023-07-29T08:10:18;20.50;99.90
26378;DHT22;14078;50.974;6.786;2023-07-29T08:12:45;20.40;99.90
26378;DHT22;14078;50.974;6.786;2023-07-29T08:15:13;20.40;99.90
26378;DHT22;14078;50.974;6.786;2023-07-29T08:17:39;20.40;99.90
26378;DHT22;14078;50.974;6.786;2023-07-29T08:20:06;20.40;99.90
26378;DHT22;14078;50.974;6.786;2023-07-29T08:22:33;20.40;99.90
26378;DHT22;14078;50.974;6.786;2023-07-29T08:24:59;20.50;99.90
26378;DHT22;14078;50.974;6.786;2023-07-29T08:27:26;20.80;99.90
26378;DHT22;14078;50.974;6.786;2023-07-29T08:29:53;20.80;99.90
26378;DHT22;14078;50.974;6.786;2023-07-29T08:32:21;20.90;99.90
26378;DHT22;14078;50.974;6.786;2023-07-29T08:34:47;20.80;99.90
26378;DHT22;14078;50.974;6.786;2023-07-29T08:37:14;20.90;99.90
26378;DHT22;14078;50.974;6.786;2023-07-29T08:39:41;20.80;99.90
26378;DHT22;14078;50.974;6.786;2023-07-29T08:42:08;20.90;99.90
26378;DHT22;14078;50.974;6.786;2023-07-29T08:44:36;21.00;99.90
26378;DHT22;14078;50.974;6.786;2023-07-29T08:47:06;21.10;99.90
26378;DHT22;14078;50.974;6.786;2023-07-29T08:49:34;21.10;99.90
26378;DHT22;14078;50.974;6.786;2023-07-29T08:52:01;21.10;99.90
26378;DHT22;14078;50.974;6.786;2023-07-29T08:54:28;21.10;99.90
26378;DHT22;14078;50.974;6.786;2023-07-29T08:56:55;21.10;99.90
26378;DHT22;14078;50.974;6.786;2023-07-29T08:59:21;21.20;99.90
26378;DHT22;14078;50.974;6.786;2023-07-29T09:01:48;21.20;99.90
26378;DHT22;14078;50.974;6.786;2023-07-29T09:04:15;21.10;99.90
26378;DHT22;14078;50.974;6.786;2023-07-29T09:06:44;21.20;99.90
26378;DHT22;14078;50.974;6.786;2023-07-29T09:09:12;21.30;99.90
26378;DHT22;14078;50.974;6.786;2023-07-29T09:11:38;21.30;99.90
26378;DHT22;14078;50.974;6.786;2023-07-29T09:14:05;21.20;99.90
26378;DHT22;14078;50.974;6.786;2023-07-29T09:16:31;21.20;99.90
26378;DHT22;14078;50.974;6.786;2023-07-29T09:19:00;21.10;99.90
26378;DHT22;14078;50.974;6.786;2023-07-29T09:21:27;21.20;99.90
26378;DHT22;14078;50.974;6.786;2023-07-29T09:23:55;21.20;99.90
26378;DHT22;14078;50.974;6.786;2023-07-29T09:26:22;21.20;99.90
26378;DHT22;14078;50.974;6.786;2023-07-29T09:28:51;21.20;99.90
26378;DHT22;14078;50.974;6.786;2023-07-29T09:31:18;21.20;99.90
26378;DHT22;14078;50.974;6.786;2023-07-29T09:33:45;21.30;99.90
26378;DHT22;14078;50.974;6.786;2023-07-29T09:36:11;21.30;99.90
26378;DHT22;14078;50.974;6.786;2023-07-29T09:38:38;21.40;99.90
26378;DHT22;14078;50.974;6.786;2023-07-29T09:41:06;21.40;99.90
26378;DHT22;14078;50.974;6.786;2023-07-29T09:43:33;21.60;99.90
26378;DHT22;14078;50.974;6.786;2023-07-29T09:46:00;21.60;99.90
26378;DHT22;14078;50.974;6.786;2023-07-29T09:48:27;21.60;99.90
26378;DHT22;14078;50.974;6.786;2023-07-29T09:50:54;21.60;99.90
26378;DHT22;14078;50.974;6.786;2023-07-29T09:53:21;21.60;99.90
26378;DHT22;14078;50.974;6.786;2023-07-29T09:55:47;21.60;99.90
26378;DHT22;14078;50.974;6.786;2023-07-29T09:58:19;21.70;98.60
26378;DHT22;14078;50.974;6.786;2023-07-29T10:00:46;21.70;99.90
26378;DHT22;14078;50.974;6.786;2023-07-29T10:03:13;21.70;99.90
26378;DHT22;14078;50.974;6.786;2023-07-29T10:05:40;21.80;99.90
26378;DHT22;14078;50.974;6.786;2023-07-29T10:08:07;21.90;99.90
26378;DHT22;14078;50.974;6.786;2023-07-29T10:10:33;21.90;70.20
26378;DHT22;14078;50.974;6.786;2023-07-29T10:13:00;21.90;99.90
26378;DHT22;14078;50.974;6.786;2023-07-29T10:15:28;21.90;95.90
26378;DHT22;14078;50.974;6.786;2023-07-29T10:17:55;21.90;99.90
26378;DHT22;14078;50.974;6.786;2023-07-29T10:20:22;21.70;99.90
26378;DHT22;14078;50.974;6.786;2023-07-29T10:22:48;21.70;99.90
26378;DHT22;14078;50.974;6.786;2023-07-29T10:25:17;21.50;99.90
26378;DHT22;14078;50.974;6.786;2023-07-29T10:27:46;21.30;99.90
26378;DHT22;14078;50.974;6.786;2023-07-29T10:30:13;21.20;99.90
26378;DHT22;14078;50.974;6.786;2023-07-29T10:32:43;21.10;99.90
26378;DHT22;14078;50.974;6.786;2023-07-29T10:35:10;21.10;99.90
26378;DHT22;14078;50.974;6.786;2023-07-29T10:37:37;21.10;99.90
26378;DHT22;14078;50.974;6.786;2023-07-29T10:40:05;21.20;99.90
26378;DHT22;14078;50.974;6.786;2023-07-29T10:42:32;21.20;99.90
26378;DHT22;14078;50.974;6.786;2023-07-29T10:45:00;21.30;99.90
26378;DHT22;14078;50.974;6.786;2023-07-29T10:47:27;21.30;99.90
26378;DHT22;14078;50.974;6.786;2023-07-29T10:49:56;21.40;99.90
26378;DHT22;14078;50.974;6.786;2023-07-29T10:52:30;21.40;99.90
26378;DHT22;14078;50.974;6.786;2023-07-29T10:54:57;21.50;99.90
26378;DHT22;14078;50.974;6.786;2023-07-29T10:57:31;21.50;99.90
26378;DHT22;14078;50.974;6.786;2023-07-29T10:59:58;21.50;99.90
26378;DHT22;14078;50.974;6.786;2023-07-29T11:02:28;21.60;99.90
26378;DHT22;14078;50.974;6.786;2023-07-29T11:04:57;21.70;99.90
26378;DHT22;14078;50.974;6.786;2023-07-29T11:07:25;21.90;99.90
26378;DHT22;14078;50.974;6.786;2023-07-29T11:09:58;22.00;99.90
26378;DHT22;14078;50.974;6.786;2023-07-29T11:12:35;22.10;99.90
26378;DHT22;14078;50.974;6.786;2023-07-29T11:15:02;22.10;99.90
26378;DHT22;14078;50.974;6.786;2023-07-29T11:17:30;22.00;99.90
26378;DHT22;14078;50.974;6.786;2023-07-29T11:20:00;22.00;99.90
26378;DHT22;14078;50.974;6.786;2023-07-29T11:22:28;22.00;99.90
26378;DHT22;14078;50.974;6.786;2023-07-29T11:24:54;22.00;99.90
26378;DHT22;14078;50.974;6.786;2023-07-29T11:27:21;22.50;99.90
26378;DHT22;14078;50.974;6.786;2023-07-29T11:29:48;22.60;99.90
26378;DHT22;14078;50.974;6.786;2023-07-29T11:32:15;22.60;99.90
26378;DHT22;14078;50.974;6.786;2023-07-29T11:34:41;22.90;85.10
26378;DHT22;14078;50.974;6.786;2023-07-29T11:37:11;23.00;99.90
26378;DHT22;14078;50.974;6.786;2023-07-29T11:39:39;23.10;91.60
26378;DHT22;14078;50.974;6.786;2023-07-29T11:42:06;23.20;63.60
26378;DHT22;14078;50.974;6.786;2023-07-29T11:44:32;23.30;87.60
26378;DHT22;14078;50.974;6.786;2023-07-29T11:46:59;23.30;56.30
26378;DHT22;14078;50.974;6.786;2023-07-29T11:49:25;23.40;56.30
26378;DHT22;14078;50.974;6.786;2023-07-29T11:51:52;23.30;89.20
26378;DHT22;14078;50.974;6.786;2023-07-29T11:54:20;23.40;25.50
26378;DHT22;14078;50.974;6.786;2023-07-29T11:56:47;23.20;16.40
26378;DHT22;14078;50.974;6.786;2023-07-29T11:59:14;23.20;50.90
26378;DHT22;14078;50.974;6.786;2023-07-29T12:01:40;23.40;58.10
26378;DHT22;14078;50.974;6.786;2023-07-29T12:04:07;23.60;52.20
26378;DHT22;14078;50.974;6.786;2023-07-29T12:06:34;23.70;68.30
26378;DHT22;14078;50.974;6.786;2023-07-29T12:09:00;23.90;23.70
26378;DHT22;14078;50.974;6.786;2023-07-29T12:11:28;23.80;83.70
26378;DHT22;14078;50.974;6.786;2023-07-29T12:13:55;23.80;11.40
26378;DHT22;14078;50.974;6.786;2023-07-29T12:16:21;23.90;20.80
26378;DHT22;14078;50.974;6.786;2023-07-29T12:18:49;23.80;99.90
26378;DHT22;14078;50.974;6.786;2023-07-29T12:21:16;23.80;1.00
26378;DHT22;14078;50.974;6.786;2023-07-29T12:23:43;23.90;1.00
26378;DHT22;14078;50.974;6.786;2023-07-29T12:26:09;24.10;99.90
26378;DHT22;14078;50.974;6.786;2023-07-29T12:28:37;24.30;99.90
26378;DHT22;14078;50.974;6.786;2023-07-29T12:31:06;24.20;1.00
26378;DHT22;14078;50.974;6.786;2023-07-29T12:33:34;24.20;1.00
26378;DHT22;14078;50.974;6.786;2023-07-29T12:36:01;24.40;99.90
26378;DHT22;14078;50.974;6.786;2023-07-29T12:38:28;24.50;99.90
26378;DHT22;14078;50.974;6.786;2023-07-29T12:40:54;24.70;1.00
26378;DHT22;14078;50.974;6.786;2023-07-29T12:43:21;24.50;29.90
26378;DHT22;14078;50.974;6.786;2023-07-29T12:45:50;24.30;99.90
26378;DHT22;14078;50.974;6.786;2023-07-29T12:48:16;24.20;1.00
26378;DHT22;14078;50.974;6.786;2023-07-29T12:50:43;24.20;99.90
26378;DHT22;14078;50.974;6.786;2023-07-29T12:53:09;24.30;1.00
26378;DHT22;14078;50.974;6.786;2023-07-29T12:55:36;24.30;99.90
26378;DHT22;14078;50.974;6.786;2023-07-29T12:58:03;24.10;1.00
26378;DHT22;14078;50.974;6.786;2023-07-29T13:00:29;24.30;1.00
26378;DHT22;14078;50.974;6.786;2023-07-29T13:02:57;24.30;1.00
26378;DHT22;14078;50.974;6.786;2023-07-29T13:05:24;24.40;1.00
26378;DHT22;14078;50.974;6.786;2023-07-29T13:07:51;24.30;99.90
26378;DHT22;14078;50.974;6.786;2023-07-29T13:10:17;24.30;99.90
26378;DHT22;14078;50.974;6.786;2023-07-29T13:12:44;24.30;1.00
26378;DHT22;14078;50.974;6.786;2023-07-29T13:15:10;24.10;1.00
26378;DHT22;14078;50.974;6.786;2023-07-29T13:17:37;23.90;99.90
26378;DHT22;14078;50.974;6.786;2023-07-29T13:20:06;23.70;99.90
26378;DHT22;14078;50.974;6.786;2023-07-29T13:22:33;23.50;1.00
26378;DHT22;14078;50.974;6.786;2023-07-29T13:24:59;23.40;99.90
26378;DHT22;14078;50.974;6.786;2023-07-29T13:27:26;23.20;99.90
26378;DHT22;14078;50.974;6.786;2023-07-29T13:29:54;23.10;1.00
26378;DHT22;14078;50.974;6.786;2023-07-29T13:32:20;22.90;99.90
26378;DHT22;14078;50.974;6.786;2023-07-29T13:34:47;22.80;1.00
26378;DHT22;14078;50.974;6.786;2023-07-29T13:37:14;22.70;1.00
26378;DHT22;14078;50.974;6.786;2023-07-29T13:39:41;22.60;1.00
26378;DHT22;14078;50.974;6.786;2023-07-29T13:42:07;22.40;39.80
26378;DHT22;14078;50.974;6.786;2023-07-29T13:44:34;22.10;91.20
26378;DHT22;14078;50.974;6.786;2023-07-29T13:47:00;21.70;99.90
26378;DHT22;14078;50.974;6.786;2023-07-29T13:49:27;21.50;99.90
26378;DHT22;14078;50.974;6.786;2023-07-29T13:51:53;21.30;99.90
26378;DHT22;14078;50.974;6.786;2023-07-29T13:54:21;21.10;99.90
26378;DHT22;14078;50.974;6.786;2023-07-29T13:56:48;21.00;99.90
26378;DHT22;14078;50.974;6.786;2023-07-29T13:59:14;20.80;99.90
26378;DHT22;14078;50.974;6.786;2023-07-29T14:01:41;20.80;99.90
26378;DHT22;14078;50.974;6.786;2023-07-29T14:04:07;20.70;99.90
26378;DHT22;14078;50.974;6.786;2023-07-29T14:06:34;20.70;99.90
26378;DHT22;14078;50.974;6.786;2023-07-29T14:09:00;20.70;99.90
26378;DHT22;14078;50.974;6.786;2023-07-29T14:11:28;20.90;99.90
26378;DHT22;14078;50.974;6.786;2023-07-29T14:13:56;20.90;99.90
26378;DHT22;14078;50.974;6.786;2023-07-29T14:16:23;21.00;99.90
26378;DHT22;14078;50.974;6.786;2023-07-29T14:18:49;21.20;99.90
26378;DHT22;14078;50.974;6.786;2023-07-29T14:21:16;21.40;99.90
26378;DHT22;14078;50.974;6.786;2023-07-29T14:23:42;21.70;99.90
26378;DHT22;14078;50.974;6.786;2023-07-29T14:26:09;22.00;99.90
26378;DHT22;14078;50.974;6.786;2023-07-29T14:28:37;22.40;99.90
26378;DHT22;14078;50.974;6.786;2023-07-29T14:31:03;22.60;99.90
26378;DHT22;14078;50.974;6.786;2023-07-29T14:33:30;22.80;54.80
26378;DHT22;14078;50.974;6.786;2023-07-29T14:35:56;22.80;1.00
26378;DHT22;14078;50.974;6.786;2023-07-29T14:38:23;22.70;37.40
26378;DHT22;14078;50.974;6.786;2023-07-29T14:40:51;22.50;15.40
26378;DHT22;14078;50.974;6.786;2023-07-29T14:43:20;22.40;65.80
26378;DHT22;14078;50.974;6.786;2023-07-29T14:45:48;22.30;99.90
26378;DHT22;14078;50.974;6.786;2023-07-29T14:48:14;22.10;99.90
26378;DHT22;14078;50.974;6.786;2023-07-29T14:50:41;22.00;99.90
26378;DHT22;14078;50.974;6.786;2023-07-29T14:53:08;21.90;99.90
26378;DHT22;14078;50.974;6.786;2023-07-29T14:55:36;21.70;99.90
26378;DHT22;14078;50.974;6.786;2023-07-29T14:58:02;21.50;99.90
26378;DHT22;14078;50.974;6.786;2023-07-29T15:00:29;21.30;99.90
26378;DHT22;14078;50.974;6.786;2023-07-29T15:02:57;21.20;99.90
26378;DHT22;14078;50.974;6.786;2023-07-29T15:05:23;21.00;99.90
26378;DHT22;14078;50.974;6.786;2023-07-29T15:07:50;21.00;99.90
26378;DHT22;14078;50.974;6.786;2023-07-29T15:10:16;21.00;99.90
26378;DHT22;14078;50.974;6.786;2023-07-29T15:12:43;20.80;99.90
26378;DHT22;14078;50.974;6.786;2023-07-29T15:15:10;20.70;99.90
26378;DHT22;14078;50.974;6.786;2023-07-29T15:17:37;20.70;99.90
26378;DHT22;14078;50.974;6.786;2023-07-29T15:20:06;21.30;99.90
26378;DHT22;14078;50.974;6.786;2023-07-29T15:22:33;21.70;99.90
26378;DHT22;14078;50.974;6.786;2023-07-29T15:24:59;21.80;99.90
26378;DHT22;14078;50.974;6.786;2023-07-29T15:27:26;22.40;99.90
26378;DHT22;14078;50.974;6.786;2023-07-29T15:29:52;22.60;60.30